Flowerfield, New York
Current Conditions -  °F | °C
As of 2:56 PM on Tuesday 21 Oct 2014 (Local Time) from KISP Reporting Station
Overcast Overcast  
Wind Chill: 65°   Ceiling: 11000
Heat Index: 65°   Visibility: 10mi
Dew Point: 51°   Wind: 9mph
Humidity: 61%   Direction: 140°SE
Pressure: 29.84"   Gusts: NA
Location:  40.8903°N, 73.169°W
Report Text: KISP 211856Z 14008KT 10SM FEW035 SCT060 BKN110 OVC250 18/11 A2984 RMK AO2 SLP105 T01830106
Loading
Personal Weather Stations






























Interactive Weather Map
Tropical Storm Tracking
New forecast layout! Learn more

10-Day Weather Forecast

Advertisements
Track Severe Weather on mobile